DLH242 EDDS-EGLL
Flight info
| Callsign | DLH242 |
|---|---|
| Flight time | N/A |
| Altitude | 24000 |
| Route | VESID2H VESID Y127 TUDGA/N0446F380 Y127 BANIM L608 LIRSU DCT DENUT L608 LOGAN |
| Aircraft | A320/M-SDE3FGHIRWY/LB1 |
Departure
| Time | 2026-05-05 12:22 |
|---|---|
| Airport | Stuttgart Airport (EDDS) |
Arrival
| Time | N/A |
|---|---|
| Airport | London Heathrow Airport (EGLL) |
| Time | Latitude | Longitude | Altitude | Speed | Heading |
|---|---|---|---|---|---|
| 2026-05-05 12:17 | 48.68799 | 9.19304 | 1285 ft | 0 kts | 69° |
| 2026-05-05 12:18 | 48.68801 | 9.19311 | 1285 ft | 3 kts | 69° |
| 2026-05-05 12:19 | 48.68813 | 9.19361 | 1286 ft | 7 kts | 71° |
| 2026-05-05 12:19 | 48.68831 | 9.19457 | 1289 ft | 11 kts | 76° |
| 2026-05-05 12:19 | 48.68853 | 9.19591 | 1289 ft | 15 kts | 77° |
| 2026-05-05 12:19 | 48.68877 | 9.19748 | 1289 ft | 16 kts | 76° |
| 2026-05-05 12:20 | 48.68857 | 9.19887 | 1287 ft | 14 kts | 140° |
| 2026-05-05 12:20 | 48.68767 | 9.19942 | 1287 ft | 13 kts | 162° |
| 2026-05-05 12:20 | 48.68682 | 9.19980 | 1287 ft | 12 kts | 166° |
| 2026-05-05 12:20 | 48.68611 | 9.20011 | 1289 ft | 9 kts | 157° |
| 2026-05-05 12:21 | 48.68588 | 9.20081 | 1286 ft | 7 kts | 85° |
| 2026-05-05 12:21 | 48.68605 | 9.20180 | 1287 ft | 26 kts | 73° |
| 2026-05-05 12:21 | 48.68728 | 9.20825 | 1285 ft | 98 kts | 74° |
| 2026-05-05 12:21 | 48.68966 | 9.22087 | 1287 ft | 152 kts | 74° |
| 2026-05-05 12:22 | 48.69294 | 9.23840 | 1386 ft | 185 kts | 74° |
| 2026-05-05 12:22 | 48.69618 | 9.25668 | 2184 ft | 176 kts | 76° |
| 2026-05-05 12:22 | 48.69899 | 9.27457 | 2966 ft | 172 kts | 76° |
| 2026-05-05 12:22 | 48.70142 | 9.29201 | 3696 ft | 166 kts | 77° |
| 2026-05-05 12:23 | 48.70345 | 9.30872 | 4285 ft | 158 kts | 79° |
| 2026-05-05 12:23 | 48.70541 | 9.32540 | 4720 ft | 167 kts | 73° |
| 2026-05-05 12:23 | 48.70921 | 9.34321 | 4957 ft | 188 kts | 70° |
| 2026-05-05 12:23 | 48.71401 | 9.36322 | 5183 ft | 211 kts | 70° |
| 2026-05-05 12:24 | 48.71910 | 9.38503 | 5441 ft | 234 kts | 70° |
| 2026-05-05 12:24 | 48.72606 | 9.40825 | 5733 ft | 254 kts | 49° |
| 2026-05-05 12:24 | 48.74106 | 9.42354 | 6088 ft | 272 kts | 15° |
| 2026-05-05 12:24 | 48.75981 | 9.43007 | 6781 ft | 280 kts | 9° |
| 2026-05-05 12:25 | 48.77934 | 9.43118 | 7557 ft | 284 kts | 352° |
| 2026-05-05 12:25 | 48.79863 | 9.42405 | 8333 ft | 288 kts | 338° |
| 2026-05-05 12:25 | 48.81685 | 9.41086 | 9118 ft | 292 kts | 332° |
| 2026-05-05 12:25 | 48.83522 | 9.39707 | 9879 ft | 297 kts | 333° |
| 2026-05-05 12:26 | 48.85398 | 9.38326 | 10573 ft | 305 kts | 333° |
| 2026-05-05 12:26 | 48.87385 | 9.36866 | 10813 ft | 329 kts | 332° |
| 2026-05-05 12:26 | 48.89326 | 9.34841 | 11011 ft | 350 kts | 315° |
| 2026-05-05 12:26 | 48.90881 | 9.31924 | 11451 ft | 360 kts | 298° |
| 2026-05-05 12:27 | 48.91856 | 9.28414 | 12122 ft | 363 kts | 282° |
| 2026-05-05 12:27 | 48.92321 | 9.24638 | 12830 ft | 365 kts | 277° |
| 2026-05-05 12:27 | 48.92736 | 9.20807 | 13540 ft | 369 kts | 277° |
| 2026-05-05 12:27 | 48.93150 | 9.16939 | 14242 ft | 372 kts | 277° |
| 2026-05-05 12:28 | 48.93564 | 9.13034 | 14907 ft | 375 kts | 277° |
| 2026-05-05 12:28 | 48.93982 | 9.09101 | 15560 ft | 378 kts | 276° |
| 2026-05-05 12:28 | 48.94401 | 9.05136 | 16198 ft | 382 kts | 276° |
| 2026-05-05 12:28 | 48.94839 | 9.01139 | 16805 ft | 386 kts | 279° |
| 2026-05-05 12:29 | 48.95683 | 8.97213 | 17400 ft | 394 kts | 292° |
| 2026-05-05 12:29 | 48.97119 | 8.93632 | 17984 ft | 402 kts | 306° |
| 2026-05-05 12:29 | 48.99103 | 8.90600 | 18545 ft | 409 kts | 320° |
| 2026-05-05 12:29 | 49.01551 | 8.88321 | 19104 ft | 417 kts | 334° |
| 2026-05-05 12:30 | 49.04251 | 8.86663 | 19659 ft | 421 kts | 337° |
| 2026-05-05 12:30 | 49.06993 | 8.85022 | 20204 ft | 424 kts | 337° |
| 2026-05-05 12:30 | 49.09753 | 8.83376 | 20723 ft | 428 kts | 337° |
| 2026-05-05 12:30 | 49.12494 | 8.81739 | 21225 ft | 431 kts | 337° |
| 2026-05-05 12:31 | 49.15381 | 8.80385 | 21717 ft | 436 kts | 347° |
| 2026-05-05 12:31 | 49.18398 | 8.79778 | 22182 ft | 440 kts | 357° |
| 2026-05-05 12:31 | 49.21472 | 8.79934 | 22643 ft | 444 kts | 5° |
| 2026-05-05 12:31 | 49.24552 | 8.80375 | 23071 ft | 447 kts | 5° |
| 2026-05-05 12:32 | 49.27669 | 8.80811 | 23501 ft | 450 kts | 5° |
| 2026-05-05 12:32 | 49.30795 | 8.81236 | 23788 ft | 452 kts | 4° |
| 2026-05-05 12:32 | 49.33941 | 8.81662 | 23856 ft | 456 kts | 5° |
| 2026-05-05 12:32 | 49.37105 | 8.82092 | 23861 ft | 458 kts | 5° |
| 2026-05-05 12:33 | 49.40279 | 8.82522 | 23861 ft | 458 kts | 4° |
| 2026-05-05 12:33 | 49.43456 | 8.82951 | 23859 ft | 458 kts | 4° |
| 2026-05-05 12:33 | 49.46633 | 8.83383 | 23861 ft | 458 kts | 5° |
| 2026-05-05 12:33 | 49.49807 | 8.83814 | 23860 ft | 458 kts | 4° |
| 2026-05-05 12:34 | 49.52986 | 8.83827 | 23856 ft | 457 kts | 353° |
| 2026-05-05 12:34 | 49.56098 | 8.82932 | 23860 ft | 454 kts | 342° |
| 2026-05-05 12:34 | 49.59039 | 8.81178 | 23861 ft | 452 kts | 331° |
| 2026-05-05 12:34 | 49.61699 | 8.78639 | 23860 ft | 448 kts | 320° |
| 2026-05-05 12:35 | 49.63982 | 8.75421 | 23856 ft | 444 kts | 309° |
| 2026-05-05 12:35 | 49.65967 | 8.71780 | 23855 ft | 443 kts | 307° |
| 2026-05-05 12:35 | 49.67936 | 8.68118 | 23851 ft | 443 kts | 307° |
| 2026-05-05 12:35 | 49.69902 | 8.64469 | 23846 ft | 443 kts | 307° |
| 2026-05-05 12:36 | 49.71910 | 8.60844 | 23846 ft | 445 kts | 311° |
| 2026-05-05 12:36 | 49.74142 | 8.57535 | 23845 ft | 446 kts | 314° |
| 2026-05-05 12:36 | 49.76408 | 8.54257 | 23843 ft | 446 kts | 314° |
| 2026-05-05 12:36 | 49.78676 | 8.50965 | 23843 ft | 446 kts | 314° |
| 2026-05-05 12:37 | 49.80935 | 8.47671 | 23842 ft | 447 kts | 314° |
| 2026-05-05 12:37 | 49.83067 | 8.44199 | 23850 ft | 443 kts | 306° |
| 2026-05-05 12:37 | 49.84808 | 8.40284 | 23851 ft | 439 kts | 296° |
| 2026-05-05 12:37 | 49.86116 | 8.36037 | 23848 ft | 435 kts | 287° |
| 2026-05-05 12:38 | 49.87072 | 8.31614 | 23848 ft | 433 kts | 284° |
| 2026-05-05 12:38 | 49.88005 | 8.27169 | 23845 ft | 434 kts | 284° |
| 2026-05-05 12:38 | 49.88946 | 8.22707 | 23846 ft | 433 kts | 284° |
| 2026-05-05 12:38 | 49.89881 | 8.18269 | 23848 ft | 433 kts | 284° |
| 2026-05-05 12:39 | 49.90813 | 8.13822 | 23849 ft | 433 kts | 284° |
| 2026-05-05 12:39 | 49.91728 | 8.09446 | 23846 ft | 433 kts | 284° |
| 2026-05-05 12:39 | 49.92654 | 8.04994 | 23847 ft | 433 kts | 284° |
| 2026-05-05 12:39 | 49.93576 | 8.00541 | 23845 ft | 433 kts | 284° |
| 2026-05-05 12:40 | 49.94427 | 7.96067 | 23846 ft | 431 kts | 279° |
| 2026-05-05 12:40 | 49.94890 | 7.91501 | 23844 ft | 427 kts | 273° |
| 2026-05-05 12:40 | 49.95251 | 7.86915 | 23844 ft | 428 kts | 273° |
| 2026-05-05 12:40 | 49.95616 | 7.82331 | 23845 ft | 428 kts | 274° |
| 2026-05-05 12:41 | 49.95983 | 7.77747 | 23848 ft | 428 kts | 274° |
| 2026-05-05 12:41 | 49.96351 | 7.73150 | 23849 ft | 429 kts | 273° |
| 2026-05-05 12:41 | 49.96714 | 7.68558 | 23851 ft | 428 kts | 273° |
| 2026-05-05 12:41 | 49.97075 | 7.63967 | 23849 ft | 428 kts | 273° |
| 2026-05-05 12:42 | 49.97434 | 7.59376 | 23849 ft | 428 kts | 273° |
| 2026-05-05 12:42 | 49.97793 | 7.54786 | 23849 ft | 428 kts | 273° |
| 2026-05-05 12:42 | 49.98148 | 7.50190 | 23848 ft | 428 kts | 273° |
| 2026-05-05 12:42 | 49.98500 | 7.45585 | 23846 ft | 429 kts | 273° |
| 2026-05-05 12:43 | 49.98849 | 7.40991 | 23845 ft | 429 kts | 273° |
| 2026-05-05 12:43 | 49.99198 | 7.36387 | 23844 ft | 429 kts | 273° |
| 2026-05-05 12:43 | 49.99546 | 7.31780 | 23841 ft | 429 kts | 273° |
| 2026-05-05 12:43 | 49.99892 | 7.27186 | 23841 ft | 429 kts | 273° |
| 2026-05-05 12:44 | 50.00236 | 7.22573 | 23841 ft | 429 kts | 273° |
| 2026-05-05 12:44 | 50.00578 | 7.17972 | 23841 ft | 429 kts | 274° |
| 2026-05-05 12:44 | 50.00920 | 7.13365 | 23841 ft | 428 kts | 274° |
| 2026-05-05 12:44 | 50.01255 | 7.08825 | 23842 ft | 428 kts | 273° |
| 2026-05-05 12:45 | 50.01591 | 7.04218 | 23841 ft | 429 kts | 273° |
| 2026-05-05 12:45 | 50.01924 | 6.99618 | 23837 ft | 429 kts | 274° |
| 2026-05-05 12:45 | 50.02284 | 6.95012 | 23834 ft | 430 kts | 277° |
| 2026-05-05 12:45 | 50.03012 | 6.90489 | 23831 ft | 433 kts | 286° |
| 2026-05-05 12:46 | 50.04214 | 6.86171 | 23826 ft | 437 kts | 296° |
| 2026-05-05 12:46 | 50.05694 | 6.82040 | 23827 ft | 438 kts | 296° |
| 2026-05-05 12:46 | 50.07177 | 6.77900 | 23824 ft | 438 kts | 296° |
| 2026-05-05 12:46 | 50.08654 | 6.73747 | 23820 ft | 438 kts | 296° |
| 2026-05-05 12:47 | 50.10126 | 6.69600 | 23822 ft | 438 kts | 296° |
| 2026-05-05 12:47 | 50.11600 | 6.65433 | 23821 ft | 439 kts | 296° |
| 2026-05-05 12:47 | 50.13069 | 6.61260 | 23819 ft | 439 kts | 296° |
| 2026-05-05 12:47 | 50.14536 | 6.57086 | 23823 ft | 440 kts | 296° |
| 2026-05-05 12:48 | 50.16009 | 6.52898 | 23823 ft | 440 kts | 296° |
| 2026-05-05 12:48 | 50.17481 | 6.48716 | 23821 ft | 440 kts | 296° |
| 2026-05-05 12:48 | 50.18959 | 6.44522 | 23824 ft | 441 kts | 296° |
| 2026-05-05 12:48 | 50.20493 | 6.40375 | 23829 ft | 441 kts | 298° |
| 2026-05-05 12:49 | 50.22099 | 6.36282 | 23829 ft | 442 kts | 300° |
| 2026-05-05 12:49 | 50.23745 | 6.32228 | 23829 ft | 442 kts | 300° |
| 2026-05-05 12:49 | 50.25383 | 6.28229 | 23832 ft | 443 kts | 300° |
| 2026-05-05 12:49 | 50.27030 | 6.24162 | 23835 ft | 443 kts | 300° |
| 2026-05-05 12:50 | 50.28652 | 6.20080 | 23837 ft | 442 kts | 299° |
| 2026-05-05 12:50 | 50.30261 | 6.15975 | 23837 ft | 442 kts | 299° |
| 2026-05-05 12:50 | 50.31860 | 6.11866 | 23838 ft | 442 kts | 299° |
| 2026-05-05 12:50 | 50.33457 | 6.07755 | 23842 ft | 443 kts | 299° |
| 2026-05-05 12:51 | 50.35055 | 6.03640 | 23845 ft | 442 kts | 299° |
| 2026-05-05 12:51 | 50.36654 | 5.99525 | 23849 ft | 443 kts | 299° |
| 2026-05-05 12:51 | 50.38256 | 5.95404 | 23856 ft | 442 kts | 299° |
| 2026-05-05 12:51 | 50.39856 | 5.91287 | 23862 ft | 443 kts | 299° |
| 2026-05-05 12:52 | 50.41456 | 5.87166 | 23864 ft | 442 kts | 299° |
| 2026-05-05 12:52 | 50.43052 | 5.83050 | 23866 ft | 442 kts | 299° |
| 2026-05-05 12:52 | 50.44649 | 5.78928 | 23866 ft | 442 kts | 299° |
| 2026-05-05 12:52 | 50.46244 | 5.74798 | 23867 ft | 442 kts | 299° |
| 2026-05-05 12:53 | 50.47831 | 5.70672 | 23871 ft | 443 kts | 299° |
| 2026-05-05 12:53 | 50.49416 | 5.66531 | 23883 ft | 443 kts | 298° |
| 2026-05-05 12:53 | 50.51002 | 5.62385 | 23887 ft | 442 kts | 298° |
| 2026-05-05 12:53 | 50.52586 | 5.58241 | 23889 ft | 442 kts | 298° |
| 2026-05-05 12:54 | 50.55760 | 5.49962 | 23891 ft | 441 kts | 299° |
| 2026-05-05 12:54 | 50.57344 | 5.45834 | 23892 ft | 441 kts | 299° |
| 2026-05-05 12:54 | 50.58926 | 5.41702 | 23893 ft | 441 kts | 299° |
| 2026-05-05 12:55 | 50.60501 | 5.37562 | 23894 ft | 440 kts | 298° |
| 2026-05-05 12:55 | 50.62068 | 5.33417 | 23894 ft | 440 kts | 298° |
| 2026-05-05 12:55 | 50.63632 | 5.29272 | 23892 ft | 440 kts | 298° |
| 2026-05-05 12:55 | 50.65196 | 5.25124 | 23893 ft | 440 kts | 298° |
| 2026-05-05 12:56 | 50.66761 | 5.20985 | 23896 ft | 440 kts | 298° |
| 2026-05-05 12:56 | 50.68330 | 5.16838 | 23897 ft | 440 kts | 298° |
| 2026-05-05 12:56 | 50.69891 | 5.12700 | 23898 ft | 439 kts | 298° |
| 2026-05-05 12:56 | 50.71431 | 5.08609 | 23897 ft | 439 kts | 298° |
| 2026-05-05 12:57 | 50.72986 | 5.04458 | 23894 ft | 439 kts | 298° |
| 2026-05-05 12:57 | 50.74541 | 5.00306 | 23891 ft | 439 kts | 298° |
| 2026-05-05 12:57 | 50.76089 | 4.96170 | 23888 ft | 438 kts | 298° |
| 2026-05-05 12:57 | 50.77644 | 4.92016 | 23890 ft | 438 kts | 298° |
| 2026-05-05 12:58 | 50.79191 | 4.87867 | 23892 ft | 438 kts | 298° |
| 2026-05-05 12:58 | 50.80734 | 4.83717 | 23895 ft | 438 kts | 298° |
| 2026-05-05 12:58 | 50.82279 | 4.79560 | 23896 ft | 438 kts | 298° |
| 2026-05-05 12:58 | 50.83823 | 4.75403 | 23899 ft | 438 kts | 298° |
| 2026-05-05 12:59 | 50.85364 | 4.71239 | 23903 ft | 438 kts | 298° |
| 2026-05-05 12:59 | 50.86902 | 4.67078 | 23906 ft | 438 kts | 298° |
| 2026-05-05 12:59 | 50.88439 | 4.62906 | 23908 ft | 438 kts | 298° |
| 2026-05-05 13:00 | 50.91509 | 4.54552 | 23911 ft | 438 kts | 298° |
| 2026-05-05 13:00 | 50.93043 | 4.50373 | 23916 ft | 438 kts | 298° |
| 2026-05-05 13:01 | 50.97644 | 4.37842 | 23929 ft | 438 kts | 298° |
| 2026-05-05 13:01 | 50.98657 | 4.35072 | 23929 ft | 438 kts | 298° |
| 2026-05-05 13:01 | 51.00681 | 4.29522 | 23931 ft | 438 kts | 298° |
| 2026-05-05 13:01 | 51.01710 | 4.26698 | 23930 ft | 438 kts | 298° |
| 2026-05-05 13:02 | 51.03231 | 4.22516 | 23932 ft | 437 kts | 298° |
| 2026-05-05 13:02 | 51.04752 | 4.18328 | 23933 ft | 437 kts | 298° |
| 2026-05-05 13:02 | 51.06267 | 4.14143 | 23932 ft | 437 kts | 298° |
| 2026-05-05 13:02 | 51.07780 | 4.09956 | 23931 ft | 436 kts | 298° |
| 2026-05-05 13:03 | 51.09290 | 4.05777 | 23927 ft | 436 kts | 298° |
| 2026-05-05 13:03 | 51.10801 | 4.01588 | 23927 ft | 436 kts | 298° |
| 2026-05-05 13:03 | 51.12308 | 3.97407 | 23929 ft | 435 kts | 298° |
| 2026-05-05 13:03 | 51.13810 | 3.93226 | 23928 ft | 435 kts | 298° |
| 2026-05-05 13:04 | 51.15311 | 3.89045 | 23927 ft | 435 kts | 298° |
| 2026-05-05 13:04 | 51.16812 | 3.84863 | 23927 ft | 435 kts | 298° |
| 2026-05-05 13:04 | 51.18308 | 3.80676 | 23929 ft | 434 kts | 298° |
| 2026-05-05 13:04 | 51.19802 | 3.76484 | 23927 ft | 434 kts | 297° |
| 2026-05-05 13:05 | 51.21288 | 3.72299 | 23927 ft | 434 kts | 297° |
| 2026-05-05 13:05 | 51.22756 | 3.68164 | 23928 ft | 434 kts | 297° |
| 2026-05-05 13:05 | 51.24247 | 3.63977 | 23927 ft | 434 kts | 298° |
| 2026-05-05 13:05 | 51.25766 | 3.59810 | 23932 ft | 434 kts | 298° |
| 2026-05-05 13:06 | 51.27305 | 3.55675 | 23933 ft | 434 kts | 299° |
| 2026-05-05 13:06 | 51.28861 | 3.51536 | 23938 ft | 434 kts | 299° |
| 2026-05-05 13:06 | 51.30416 | 3.47405 | 23938 ft | 434 kts | 299° |
| 2026-05-05 13:06 | 51.31961 | 3.43277 | 23938 ft | 433 kts | 299° |
| 2026-05-05 13:07 | 51.33500 | 3.39131 | 23947 ft | 433 kts | 299° |
| 2026-05-05 13:07 | 51.34939 | 3.34910 | 23940 ft | 432 kts | 292° |
| 2026-05-05 13:07 | 51.36039 | 3.30455 | 23945 ft | 430 kts | 289° |
| 2026-05-05 13:07 | 51.37094 | 3.25979 | 23950 ft | 430 kts | 289° |
| 2026-05-05 13:08 | 51.38150 | 3.21492 | 23949 ft | 430 kts | 289° |
| 2026-05-05 13:08 | 51.39206 | 3.17007 | 23944 ft | 430 kts | 289° |
| 2026-05-05 13:08 | 51.40261 | 3.12526 | 23947 ft | 430 kts | 289° |
| 2026-05-05 13:08 | 51.41319 | 3.08040 | 23941 ft | 431 kts | 289° |
| 2026-05-05 13:09 | 51.42377 | 3.03554 | 23947 ft | 431 kts | 289° |
| 2026-05-05 13:09 | 51.43437 | 2.99049 | 23940 ft | 431 kts | 289° |
| 2026-05-05 13:09 | 51.44489 | 2.94564 | 23948 ft | 430 kts | 289° |
| 2026-05-05 13:09 | 51.45543 | 2.90064 | 23946 ft | 431 kts | 289° |
| 2026-05-05 13:10 | 51.46594 | 2.85562 | 23949 ft | 431 kts | 289° |
| 2026-05-05 13:10 | 51.47641 | 2.81062 | 23947 ft | 431 kts | 289° |
| 2026-05-05 13:10 | 51.48689 | 2.76560 | 23953 ft | 430 kts | 289° |
| 2026-05-05 13:10 | 51.49734 | 2.72058 | 23948 ft | 430 kts | 289° |
| 2026-05-05 13:11 | 51.50773 | 2.67558 | 23959 ft | 430 kts | 288° |
| 2026-05-05 13:11 | 51.51808 | 2.63058 | 23956 ft | 430 kts | 288° |
| 2026-05-05 13:11 | 51.52831 | 2.58617 | 23957 ft | 429 kts | 288° |
| 2026-05-05 13:11 | 51.53879 | 2.54058 | 23954 ft | 429 kts | 288° |
| 2026-05-05 13:12 | 51.54911 | 2.49565 | 23950 ft | 429 kts | 288° |
| 2026-05-05 13:12 | 51.55942 | 2.45069 | 23953 ft | 429 kts | 288° |
| 2026-05-05 13:12 | 51.56958 | 2.40635 | 23958 ft | 428 kts | 288° |
| 2026-05-05 13:12 | 51.57985 | 2.36141 | 23957 ft | 428 kts | 288° |
| 2026-05-05 13:13 | 51.59022 | 2.31585 | 23955 ft | 428 kts | 288° |
| 2026-05-05 13:13 | 51.60043 | 2.27086 | 23957 ft | 428 kts | 288° |
| 2026-05-05 13:13 | 51.61060 | 2.22596 | 23960 ft | 428 kts | 288° |
| 2026-05-05 13:13 | 51.62078 | 2.18095 | 23959 ft | 428 kts | 288° |
| 2026-05-05 13:14 | 51.63095 | 2.13589 | 23968 ft | 428 kts | 288° |
| 2026-05-05 13:14 | 51.64109 | 2.09095 | 23967 ft | 427 kts | 288° |
| 2026-05-05 13:14 | 51.65123 | 2.04596 | 23973 ft | 427 kts | 288° |
| 2026-05-05 13:14 | 51.66134 | 2.00106 | 23967 ft | 427 kts | 288° |
| 2026-05-05 13:15 | 51.67133 | 1.95662 | 23965 ft | 426 kts | 288° |
| 2026-05-05 13:15 | 51.68136 | 1.91171 | 23957 ft | 426 kts | 288° |
| 2026-05-05 13:15 | 51.69134 | 1.86671 | 23957 ft | 426 kts | 288° |
| 2026-05-05 13:15 | 51.70131 | 1.82174 | 23965 ft | 426 kts | 288° |
| 2026-05-05 13:16 | 51.71128 | 1.77678 | 23969 ft | 426 kts | 288° |
| 2026-05-05 13:16 | 51.72125 | 1.73170 | 23966 ft | 426 kts | 288° |
| 2026-05-05 13:16 | 51.73118 | 1.68678 | 23966 ft | 426 kts | 288° |
| 2026-05-05 13:16 | 51.74007 | 1.64122 | 23956 ft | 424 kts | 281° |
| 2026-05-05 13:17 | 51.74426 | 1.59447 | 23970 ft | 418 kts | 271° |
| 2026-05-05 13:17 | 51.74357 | 1.54779 | 23971 ft | 415 kts | 263° |
| 2026-05-05 13:17 | 51.74055 | 1.50137 | 23971 ft | 415 kts | 263° |
| 2026-05-05 13:17 | 51.73755 | 1.45508 | 23973 ft | 415 kts | 263° |
| 2026-05-05 13:18 | 51.73454 | 1.40870 | 23970 ft | 415 kts | 263° |
| 2026-05-05 13:18 | 51.73154 | 1.36238 | 23971 ft | 415 kts | 263° |
| 2026-05-05 13:18 | 51.72850 | 1.31605 | 23971 ft | 416 kts | 263° |
| 2026-05-05 13:18 | 51.72551 | 1.27038 | 23971 ft | 416 kts | 262° |
| 2026-05-05 13:19 | 51.72245 | 1.22402 | 23972 ft | 416 kts | 262° |
| 2026-05-05 13:19 | 51.71940 | 1.17768 | 23972 ft | 416 kts | 262° |
| 2026-05-05 13:19 | 51.71633 | 1.13135 | 23970 ft | 416 kts | 262° |
| 2026-05-05 13:19 | 51.71320 | 1.08502 | 23969 ft | 416 kts | 262° |
| 2026-05-05 13:20 | 51.71002 | 1.03866 | 23968 ft | 416 kts | 262° |
| 2026-05-05 13:20 | 51.70681 | 0.99232 | 23969 ft | 416 kts | 262° |
| 2026-05-05 13:20 | 51.70358 | 0.94597 | 23969 ft | 416 kts | 262° |
| 2026-05-05 13:20 | 51.70036 | 0.89965 | 23970 ft | 416 kts | 262° |
| 2026-05-05 13:21 | 51.69714 | 0.85330 | 23970 ft | 416 kts | 262° |
| 2026-05-05 13:21 | 51.69399 | 0.80802 | 23970 ft | 416 kts | 262° |
| 2026-05-05 13:21 | 51.69074 | 0.76174 | 23970 ft | 416 kts | 262° |
| 2026-05-05 13:21 | 51.68747 | 0.71547 | 23967 ft | 415 kts | 262° |
| 2026-05-05 13:22 | 51.68420 | 0.66927 | 23968 ft | 415 kts | 262° |
| 2026-05-05 13:22 | 51.68088 | 0.62304 | 23968 ft | 415 kts | 262° |
| 2026-05-05 13:22 | 51.67753 | 0.57680 | 23970 ft | 415 kts | 262° |
| 2026-05-05 13:22 | 51.67415 | 0.53065 | 23970 ft | 415 kts | 262° |
| 2026-05-05 13:23 | 51.67078 | 0.48450 | 23971 ft | 415 kts | 262° |
| 2026-05-05 13:23 | 51.66741 | 0.43834 | 23971 ft | 414 kts | 262° |
| 2026-05-05 13:23 | 51.66402 | 0.39223 | 23968 ft | 414 kts | 262° |
| 2026-05-05 13:23 | 51.66062 | 0.34611 | 23968 ft | 414 kts | 261° |
| 2026-05-05 13:24 | 51.65722 | 0.30013 | 23967 ft | 414 kts | 261° |
| 2026-05-05 13:24 | 51.65378 | 0.25410 | 23967 ft | 414 kts | 261° |
| 2026-05-05 13:24 | 51.65029 | 0.20801 | 23967 ft | 414 kts | 261° |
| 2026-05-05 13:24 | 51.64669 | 0.16210 | 23968 ft | 413 kts | 259° |